York, PA

1:56 PM EDT on July 06, 2015 (GMT -0400)
York | | Change Station
CLOSE
Current Station
Airport
Location: York,
Elevation: 479 ft
Nearby Weather Stations

Elev 479 ft 39.92 °N, 76.87 °W | Updated 3 minutes ago

Mostly Cloudy
Mostly Cloudy
81 °F
Feels Like 85 °F
N
13
Wind Variable Wind from SE

Today
High -- | Low -- °F
--% Chance of Precip.
Yesterday
High -- | Low -- °F
Precip. -- in
5:45 AM 8:39 PM
Waning Gibbous, 73% visible
Pressure 30.09 in
Visibility 10.0 miles
Clouds Mostly Cloudy 3100 ft
Mostly Cloudy 3900 ft
Heat Index 85 °F
Dew Point 71 °F
Humidity 72%
Rainfall 0.01 in
Snow Depth Not available.
UV 6 out of 12
Pollen .10 out of 12
Air Quality Not available.
Flu Activity Not available.
METAR KTHV 061753Z AUTO 13011KT 10SM BKN031 BKN039 27/22 A3009 RMK AO2 LTG DSNT SW SLP188 T02720217 10283 20222 58013

More Conditions Fewer Conditions

Pressure 30.09 in
Visibility 10.0 miles
Clouds Mostly Cloudy 3100 ft
Mostly Cloudy 3900 ft
Heat Index 85 °F
Dew Point 71 °F
Humidity 72%
Rainfall 0.01 in
Snow Depth Not available.
UV 6 out of 12
Pollen .10 out of 12
Air Quality Not available.
Flu Activity Not available.
METAR KTHV 061753Z AUTO 13011KT 10SM BKN031 BKN039 27/22 A3009 RMK AO2 LTG DSNT SW SLP188 T02720217 10283 20222 58013

More Conditions Fewer Conditions

10-Day Weather Forecast

×

Almanac

Astronomy

Jul. 06, 2015 Rise Set
Actual Time
Civil Twilight
Nautical Twilight
Astronomical Twilight
Moon
Length of Visible Light
Length of Day
Tomorrow will be .
, % of the Moon is Illuminated

Today's Extremes

State Highs State Lows

Community

WunderPhotos

Upload Photos

1,835,607 photos uploaded!

WunderBlogs® & News

Nearby

Air Quality

  Air Quality AQ Index Pollutant
Not available.

Snow Depth

Station Depth Elevation

Earthquake Activity

City Distance Mag. Time & Date
Minimum magnitude displayed is 2.5.

Coastal Water Temperatures

Place Temperature

Stations

Nearby Weather Stations

Station Location Temp. Windchill Dew Point Humidity Wind Precip. Elev Updated Type